sensor_id;sensor_type;location;lat;lon;timestamp;P1;durP1;ratioP1;P2;durP2;ratioP2
56830;SDS011;42713;42.676;23.352;2023-04-06T00:00:32;14.50;;;6.88;;
56830;SDS011;42713;42.676;23.352;2023-04-06T00:03:05;14.10;;;6.75;;
56830;SDS011;42713;42.676;23.352;2023-04-06T00:05:30;12.73;;;6.57;;
56830;SDS011;42713;42.676;23.352;2023-04-06T00:07:59;12.40;;;7.28;;
56830;SDS011;42713;42.676;23.352;2023-04-06T00:10:25;13.30;;;7.00;;
56830;SDS011;42713;42.676;23.352;2023-04-06T00:12:51;13.00;;;6.72;;
56830;SDS011;42713;42.676;23.352;2023-04-06T00:15:17;12.80;;;6.65;;
56830;SDS011;42713;42.676;23.352;2023-04-06T00:17:42;14.23;;;7.30;;
56830;SDS011;42713;42.676;23.352;2023-04-06T00:20:08;12.27;;;6.50;;
56830;SDS011;42713;42.676;23.352;2023-04-06T00:22:34;12.55;;;6.60;;
56830;SDS011;42713;42.676;23.352;2023-04-06T00:25:00;11.77;;;6.63;;
56830;SDS011;42713;42.676;23.352;2023-04-06T00:27:25;13.85;;;6.43;;
56830;SDS011;42713;42.676;23.352;2023-04-06T00:29:51;11.93;;;6.30;;
56830;SDS011;42713;42.676;23.352;2023-04-06T00:32:16;13.25;;;6.13;;
56830;SDS011;42713;42.676;23.352;2023-04-06T00:34:42;12.15;;;6.43;;
56830;SDS011;42713;42.676;23.352;2023-04-06T00:37:07;13.05;;;6.90;;
56830;SDS011;42713;42.676;23.352;2023-04-06T00:39:33;12.88;;;6.38;;
56830;SDS011;42713;42.676;23.352;2023-04-06T00:41:58;13.90;;;7.03;;
56830;SDS011;42713;42.676;23.352;2023-04-06T00:44:25;14.35;;;7.03;;
56830;SDS011;42713;42.676;23.352;2023-04-06T00:46:50;12.70;;;6.80;;
56830;SDS011;42713;42.676;23.352;2023-04-06T00:49:16;12.93;;;7.10;;
56830;SDS011;42713;42.676;23.352;2023-04-06T00:51:42;13.20;;;6.30;;
56830;SDS011;42713;42.676;23.352;2023-04-06T00:54:07;12.98;;;6.97;;
56830;SDS011;42713;42.676;23.352;2023-04-06T00:56:33;13.38;;;6.57;;
56830;SDS011;42713;42.676;23.352;2023-04-06T00:58:58;11.73;;;6.28;;
56830;SDS011;42713;42.676;23.352;2023-04-06T01:01:24;16.90;;;7.05;;
56830;SDS011;42713;42.676;23.352;2023-04-06T01:03:50;13.57;;;7.15;;
56830;SDS011;42713;42.676;23.352;2023-04-06T01:06:16;12.73;;;6.47;;
56830;SDS011;42713;42.676;23.352;2023-04-06T01:08:41;11.95;;;6.15;;
56830;SDS011;42713;42.676;23.352;2023-04-06T01:11:07;12.32;;;5.90;;
56830;SDS011;42713;42.676;23.352;2023-04-06T01:13:32;10.65;;;5.72;;
56830;SDS011;42713;42.676;23.352;2023-04-06T01:15:58;11.27;;;6.00;;
56830;SDS011;42713;42.676;23.352;2023-04-06T01:18:27;11.75;;;5.95;;
56830;SDS011;42713;42.676;23.352;2023-04-06T01:20:53;11.70;;;6.18;;
56830;SDS011;42713;42.676;23.352;2023-04-06T01:23:18;11.20;;;5.90;;
56830;SDS011;42713;42.676;23.352;2023-04-06T01:25:44;11.73;;;6.05;;
56830;SDS011;42713;42.676;23.352;2023-04-06T01:28:09;12.07;;;6.07;;
56830;SDS011;42713;42.676;23.352;2023-04-06T01:30:35;13.07;;;6.40;;
56830;SDS011;42713;42.676;23.352;2023-04-06T01:33:00;13.27;;;6.28;;
56830;SDS011;42713;42.676;23.352;2023-04-06T01:35:26;12.98;;;6.40;;
56830;SDS011;42713;42.676;23.352;2023-04-06T01:37:52;11.55;;;6.20;;
56830;SDS011;42713;42.676;23.352;2023-04-06T01:40:18;11.95;;;5.70;;
56830;SDS011;42713;42.676;23.352;2023-04-06T01:42:43;11.23;;;5.85;;
56830;SDS011;42713;42.676;23.352;2023-04-06T01:45:09;11.35;;;5.97;;
56830;SDS011;42713;42.676;23.352;2023-04-06T01:47:35;11.93;;;6.07;;
56830;SDS011;42713;42.676;23.352;2023-04-06T01:50:00;13.27;;;6.63;;
56830;SDS011;42713;42.676;23.352;2023-04-06T01:52:26;12.30;;;6.35;;
56830;SDS011;42713;42.676;23.352;2023-04-06T01:54:51;11.30;;;5.70;;
56830;SDS011;42713;42.676;23.352;2023-04-06T01:57:17;14.02;;;6.45;;
56830;SDS011;42713;42.676;23.352;2023-04-06T01:59:43;12.30;;;5.97;;
56830;SDS011;42713;42.676;23.352;2023-04-06T02:02:08;15.02;;;6.63;;
56830;SDS011;42713;42.676;23.352;2023-04-06T02:04:34;10.95;;;5.15;;
56830;SDS011;42713;42.676;23.352;2023-04-06T02:06:59;14.07;;;6.15;;
56830;SDS011;42713;42.676;23.352;2023-04-06T02:09:25;12.85;;;5.97;;
56830;SDS011;42713;42.676;23.352;2023-04-06T02:11:50;11.48;;;5.97;;
56830;SDS011;42713;42.676;23.352;2023-04-06T02:14:16;11.73;;;5.95;;
56830;SDS011;42713;42.676;23.352;2023-04-06T02:16:41;12.50;;;6.22;;
56830;SDS011;42713;42.676;23.352;2023-04-06T02:19:07;11.90;;;5.90;;
56830;SDS011;42713;42.676;23.352;2023-04-06T02:21:32;10.50;;;5.10;;
56830;SDS011;42713;42.676;23.352;2023-04-06T02:23:58;11.18;;;5.43;;
56830;SDS011;42713;42.676;23.352;2023-04-06T02:26:23;10.55;;;5.60;;
56830;SDS011;42713;42.676;23.352;2023-04-06T02:28:49;11.43;;;6.18;;
56830;SDS011;42713;42.676;23.352;2023-04-06T02:31:14;13.30;;;5.88;;
56830;SDS011;42713;42.676;23.352;2023-04-06T02:33:40;13.05;;;6.15;;
56830;SDS011;42713;42.676;23.352;2023-04-06T02:36:06;12.13;;;6.25;;
56830;SDS011;42713;42.676;23.352;2023-04-06T02:38:31;12.80;;;5.70;;
56830;SDS011;42713;42.676;23.352;2023-04-06T02:40:57;12.05;;;6.28;;
56830;SDS011;42713;42.676;23.352;2023-04-06T02:43:22;11.77;;;6.18;;
56830;SDS011;42713;42.676;23.352;2023-04-06T02:45:48;13.38;;;6.82;;
56830;SDS011;42713;42.676;23.352;2023-04-06T02:48:13;10.80;;;6.07;;
56830;SDS011;42713;42.676;23.352;2023-04-06T02:50:39;13.43;;;5.80;;
56830;SDS011;42713;42.676;23.352;2023-04-06T02:53:05;14.18;;;6.10;;
56830;SDS011;42713;42.676;23.352;2023-04-06T02:55:30;11.90;;;6.35;;
56830;SDS011;42713;42.676;23.352;2023-04-06T02:57:56;14.02;;;7.18;;
56830;SDS011;42713;42.676;23.352;2023-04-06T03:00:21;12.15;;;6.53;;
56830;SDS011;42713;42.676;23.352;2023-04-06T03:02:47;9.63;;;5.50;;
56830;SDS011;42713;42.676;23.352;2023-04-06T03:05:12;13.93;;;6.28;;
56830;SDS011;42713;42.676;23.352;2023-04-06T03:07:38;11.80;;;6.05;;
56830;SDS011;42713;42.676;23.352;2023-04-06T03:10:04;15.18;;;6.35;;
56830;SDS011;42713;42.676;23.352;2023-04-06T03:12:30;11.27;;;5.43;;
56830;SDS011;42713;42.676;23.352;2023-04-06T03:14:55;10.95;;;5.75;;
56830;SDS011;42713;42.676;23.352;2023-04-06T03:17:21;13.60;;;5.55;;
56830;SDS011;42713;42.676;23.352;2023-04-06T03:19:46;10.75;;;5.72;;
56830;SDS011;42713;42.676;23.352;2023-04-06T03:22:12;11.93;;;4.93;;
56830;SDS011;42713;42.676;23.352;2023-04-06T03:24:37;11.13;;;5.85;;
56830;SDS011;42713;42.676;23.352;2023-04-06T03:27:02;10.68;;;5.32;;
56830;SDS011;42713;42.676;23.352;2023-04-06T03:29:28;11.32;;;6.22;;
56830;SDS011;42713;42.676;23.352;2023-04-06T03:31:54;12.70;;;6.22;;
56830;SDS011;42713;42.676;23.352;2023-04-06T03:34:19;12.80;;;6.65;;
56830;SDS011;42713;42.676;23.352;2023-04-06T03:36:45;10.90;;;5.90;;
56830;SDS011;42713;42.676;23.352;2023-04-06T03:39:11;12.27;;;6.97;;
56830;SDS011;42713;42.676;23.352;2023-04-06T03:41:37;12.40;;;6.55;;
56830;SDS011;42713;42.676;23.352;2023-04-06T03:44:02;11.02;;;5.70;;
56830;SDS011;42713;42.676;23.352;2023-04-06T03:46:28;13.38;;;6.50;;
56830;SDS011;42713;42.676;23.352;2023-04-06T03:48:53;13.00;;;6.75;;
56830;SDS011;42713;42.676;23.352;2023-04-06T03:51:19;11.13;;;5.80;;
56830;SDS011;42713;42.676;23.352;2023-04-06T03:53:44;12.80;;;6.40;;
56830;SDS011;42713;42.676;23.352;2023-04-06T03:56:10;13.50;;;6.53;;
56830;SDS011;42713;42.676;23.352;2023-04-06T03:58:36;13.77;;;6.53;;
56830;SDS011;42713;42.676;23.352;2023-04-06T04:01:01;13.68;;;6.97;;
56830;SDS011;42713;42.676;23.352;2023-04-06T04:03:27;11.77;;;5.90;;
56830;SDS011;42713;42.676;23.352;2023-04-06T04:05:53;11.38;;;6.03;;
56830;SDS011;42713;42.676;23.352;2023-04-06T04:08:20;14.30;;;7.05;;
56830;SDS011;42713;42.676;23.352;2023-04-06T04:10:45;12.55;;;6.85;;
56830;SDS011;42713;42.676;23.352;2023-04-06T04:13:11;13.73;;;7.68;;
56830;SDS011;42713;42.676;23.352;2023-04-06T04:15:36;16.23;;;7.70;;
56830;SDS011;42713;42.676;23.352;2023-04-06T04:18:01;12.95;;;6.95;;
56830;SDS011;42713;42.676;23.352;2023-04-06T04:20:27;12.95;;;7.03;;
56830;SDS011;42713;42.676;23.352;2023-04-06T04:22:53;15.10;;;7.35;;
56830;SDS011;42713;42.676;23.352;2023-04-06T04:25:19;14.93;;;7.80;;
56830;SDS011;42713;42.676;23.352;2023-04-06T04:27:45;13.50;;;7.18;;
56830;SDS011;42713;42.676;23.352;2023-04-06T04:30:10;14.77;;;6.53;;
56830;SDS011;42713;42.676;23.352;2023-04-06T04:32:36;14.52;;;7.22;;
56830;SDS011;42713;42.676;23.352;2023-04-06T04:35:01;13.68;;;7.63;;
56830;SDS011;42713;42.676;23.352;2023-04-06T04:37:27;14.77;;;7.15;;
56830;SDS011;42713;42.676;23.352;2023-04-06T04:39:52;13.50;;;7.00;;
56830;SDS011;42713;42.676;23.352;2023-04-06T04:42:18;13.75;;;6.85;;
56830;SDS011;42713;42.676;23.352;2023-04-06T04:44:43;12.88;;;7.18;;
56830;SDS011;42713;42.676;23.352;2023-04-06T04:47:09;11.20;;;5.60;;
56830;SDS011;42713;42.676;23.352;2023-04-06T04:49:34;11.93;;;6.80;;
56830;SDS011;42713;42.676;23.352;2023-04-06T04:52:00;12.00;;;6.53;;
56830;SDS011;42713;42.676;23.352;2023-04-06T04:54:25;15.70;;;6.68;;
56830;SDS011;42713;42.676;23.352;2023-04-06T04:56:51;16.65;;;6.80;;
56830;SDS011;42713;42.676;23.352;2023-04-06T04:59:16;13.50;;;6.50;;
56830;SDS011;42713;42.676;23.352;2023-04-06T05:01:47;16.50;;;6.57;;
56830;SDS011;42713;42.676;23.352;2023-04-06T05:04:13;12.95;;;6.55;;
56830;SDS011;42713;42.676;23.352;2023-04-06T05:06:38;16.08;;;7.32;;
56830;SDS011;42713;42.676;23.352;2023-04-06T05:09:04;14.85;;;7.22;;
56830;SDS011;42713;42.676;23.352;2023-04-06T05:11:30;12.75;;;6.60;;
56830;SDS011;42713;42.676;23.352;2023-04-06T05:13:55;17.30;;;7.65;;
56830;SDS011;42713;42.676;23.352;2023-04-06T05:16:21;14.25;;;7.53;;
56830;SDS011;42713;42.676;23.352;2023-04-06T05:18:48;14.45;;;7.70;;
56830;SDS011;42713;42.676;23.352;2023-04-06T05:21:14;14.82;;;7.30;;
56830;SDS011;42713;42.676;23.352;2023-04-06T05:23:39;16.38;;;8.00;;
56830;SDS011;42713;42.676;23.352;2023-04-06T05:26:05;12.45;;;6.60;;
56830;SDS011;42713;42.676;23.352;2023-04-06T05:28:31;14.13;;;8.00;;
56830;SDS011;42713;42.676;23.352;2023-04-06T05:30:57;18.75;;;8.13;;
56830;SDS011;42713;42.676;23.352;2023-04-06T05:33:22;14.25;;;7.70;;
56830;SDS011;42713;42.676;23.352;2023-04-06T05:35:48;19.33;;;9.18;;
56830;SDS011;42713;42.676;23.352;2023-04-06T05:38:14;15.43;;;8.05;;
56830;SDS011;42713;42.676;23.352;2023-04-06T05:40:40;15.77;;;9.35;;
56830;SDS011;42713;42.676;23.352;2023-04-06T05:43:06;18.25;;;8.50;;
56830;SDS011;42713;42.676;23.352;2023-04-06T05:45:32;21.23;;;9.48;;
56830;SDS011;42713;42.676;23.352;2023-04-06T05:47:58;19.98;;;9.55;;
56830;SDS011;42713;42.676;23.352;2023-04-06T05:50:24;16.73;;;8.75;;
56830;SDS011;42713;42.676;23.352;2023-04-06T05:52:50;15.30;;;8.48;;
56830;SDS011;42713;42.676;23.352;2023-04-06T05:55:15;17.27;;;8.52;;
56830;SDS011;42713;42.676;23.352;2023-04-06T05:57:41;16.38;;;9.27;;
56830;SDS011;42713;42.676;23.352;2023-04-06T06:00:07;17.52;;;10.15;;
56830;SDS011;42713;42.676;23.352;2023-04-06T06:02:34;18.17;;;10.07;;
56830;SDS011;42713;42.676;23.352;2023-04-06T06:05:00;18.17;;;10.15;;
56830;SDS011;42713;42.676;23.352;2023-04-06T06:07:26;19.48;;;10.68;;
56830;SDS011;42713;42.676;23.352;2023-04-06T06:09:51;18.63;;;9.63;;
56830;SDS011;42713;42.676;23.352;2023-04-06T06:12:17;17.63;;;9.55;;
56830;SDS011;42713;42.676;23.352;2023-04-06T06:14:42;18.88;;;9.52;;
56830;SDS011;42713;42.676;23.352;2023-04-06T06:17:08;18.33;;;9.98;;
56830;SDS011;42713;42.676;23.352;2023-04-06T06:19:33;17.10;;;8.68;;
56830;SDS011;42713;42.676;23.352;2023-04-06T06:21:59;16.77;;;8.57;;
56830;SDS011;42713;42.676;23.352;2023-04-06T06:24:27;20.23;;;9.80;;
56830;SDS011;42713;42.676;23.352;2023-04-06T06:26:52;16.63;;;9.68;;
56830;SDS011;42713;42.676;23.352;2023-04-06T06:29:18;18.33;;;9.02;;
56830;SDS011;42713;42.676;23.352;2023-04-06T06:31:43;20.13;;;9.88;;
56830;SDS011;42713;42.676;23.352;2023-04-06T06:34:09;18.35;;;9.98;;
56830;SDS011;42713;42.676;23.352;2023-04-06T06:36:35;24.10;;;11.25;;
56830;SDS011;42713;42.676;23.352;2023-04-06T06:39:00;18.50;;;10.50;;
56830;SDS011;42713;42.676;23.352;2023-04-06T06:41:28;19.25;;;9.63;;
56830;SDS011;42713;42.676;23.352;2023-04-06T06:43:54;19.48;;;9.32;;
56830;SDS011;42713;42.676;23.352;2023-04-06T06:46:20;16.25;;;8.95;;
56830;SDS011;42713;42.676;23.352;2023-04-06T06:48:46;18.15;;;9.93;;
56830;SDS011;42713;42.676;23.352;2023-04-06T06:51:11;19.50;;;10.80;;
56830;SDS011;42713;42.676;23.352;2023-04-06T06:53:37;18.55;;;10.65;;
56830;SDS011;42713;42.676;23.352;2023-04-06T06:56:02;15.35;;;8.77;;
56830;SDS011;42713;42.676;23.352;2023-04-06T06:58:29;16.30;;;8.65;;
56830;SDS011;42713;42.676;23.352;2023-04-06T07:00:58;14.45;;;8.63;;
56830;SDS011;42713;42.676;23.352;2023-04-06T07:03:24;19.02;;;9.52;;
56830;SDS011;42713;42.676;23.352;2023-04-06T07:05:50;18.08;;;9.25;;
56830;SDS011;42713;42.676;23.352;2023-04-06T07:08:21;15.80;;;8.20;;
56830;SDS011;42713;42.676;23.352;2023-04-06T07:10:48;15.65;;;8.10;;
56830;SDS011;42713;42.676;23.352;2023-04-06T07:13:17;13.48;;;7.53;;
56830;SDS011;42713;42.676;23.352;2023-04-06T07:15:47;17.83;;;7.90;;
56830;SDS011;42713;42.676;23.352;2023-04-06T07:18:13;16.08;;;8.50;;
56830;SDS011;42713;42.676;23.352;2023-04-06T07:20:38;16.95;;;9.45;;
56830;SDS011;42713;42.676;23.352;2023-04-06T07:23:04;18.13;;;8.10;;
56830;SDS011;42713;42.676;23.352;2023-04-06T07:25:29;15.07;;;8.05;;
56830;SDS011;42713;42.676;23.352;2023-04-06T07:27:55;16.58;;;8.13;;
56830;SDS011;42713;42.676;23.352;2023-04-06T07:30:22;17.48;;;8.98;;
56830;SDS011;42713;42.676;23.352;2023-04-06T07:32:48;19.00;;;9.30;;
56830;SDS011;42713;42.676;23.352;2023-04-06T07:35:14;19.67;;;10.00;;
56830;SDS011;42713;42.676;23.352;2023-04-06T07:37:40;17.98;;;9.60;;
56830;SDS011;42713;42.676;23.352;2023-04-06T07:40:07;17.45;;;8.70;;
56830;SDS011;42713;42.676;23.352;2023-04-06T07:42:33;15.63;;;7.93;;
56830;SDS011;42713;42.676;23.352;2023-04-06T07:44:58;18.05;;;8.40;;
56830;SDS011;42713;42.676;23.352;2023-04-06T07:47:24;16.30;;;8.45;;
56830;SDS011;42713;42.676;23.352;2023-04-06T07:49:50;14.77;;;8.35;;
56830;SDS011;42713;42.676;23.352;2023-04-06T07:52:15;16.55;;;9.45;;
56830;SDS011;42713;42.676;23.352;2023-04-06T07:54:41;20.85;;;9.38;;
56830;SDS011;42713;42.676;23.352;2023-04-06T07:57:07;15.75;;;8.55;;
56830;SDS011;42713;42.676;23.352;2023-04-06T07:59:32;15.75;;;7.95;;
56830;SDS011;42713;42.676;23.352;2023-04-06T08:01:58;21.65;;;10.32;;
56830;SDS011;42713;42.676;23.352;2023-04-06T08:04:23;17.05;;;9.68;;
56830;SDS011;42713;42.676;23.352;2023-04-06T08:06:49;18.20;;;9.45;;
56830;SDS011;42713;42.676;23.352;2023-04-06T08:09:15;17.08;;;8.52;;
56830;SDS011;42713;42.676;23.352;2023-04-06T08:11:40;15.75;;;8.27;;
56830;SDS011;42713;42.676;23.352;2023-04-06T08:14:06;16.05;;;8.52;;
56830;SDS011;42713;42.676;23.352;2023-04-06T08:16:31;20.00;;;8.80;;
56830;SDS011;42713;42.676;23.352;2023-04-06T08:18:57;17.13;;;8.65;;
56830;SDS011;42713;42.676;23.352;2023-04-06T08:21:22;16.67;;;9.07;;
56830;SDS011;42713;42.676;23.352;2023-04-06T08:23:48;13.60;;;7.93;;
56830;SDS011;42713;42.676;23.352;2023-04-06T08:26:14;15.38;;;8.05;;
56830;SDS011;42713;42.676;23.352;2023-04-06T08:28:39;16.02;;;7.57;;
56830;SDS011;42713;42.676;23.352;2023-04-06T08:31:05;16.27;;;7.47;;
56830;SDS011;42713;42.676;23.352;2023-04-06T08:33:32;14.00;;;7.15;;
56830;SDS011;42713;42.676;23.352;2023-04-06T08:36:06;13.68;;;7.28;;
56830;SDS011;42713;42.676;23.352;2023-04-06T08:38:35;15.15;;;7.63;;
56830;SDS011;42713;42.676;23.352;2023-04-06T08:41:06;12.07;;;6.88;;
56830;SDS011;42713;42.676;23.352;2023-04-06T08:43:32;14.00;;;7.82;;
56830;SDS011;42713;42.676;23.352;2023-04-06T08:46:00;17.02;;;7.90;;
56830;SDS011;42713;42.676;23.352;2023-04-06T08:48:25;15.60;;;8.05;;
56830;SDS011;42713;42.676;23.352;2023-04-06T08:50:53;15.73;;;7.93;;
56830;SDS011;42713;42.676;23.352;2023-04-06T08:53:20;14.15;;;7.32;;
56830;SDS011;42713;42.676;23.352;2023-04-06T08:55:45;19.35;;;7.82;;
56830;SDS011;42713;42.676;23.352;2023-04-06T08:58:11;14.82;;;7.72;;
56830;SDS011;42713;42.676;23.352;2023-04-06T09:00:38;16.10;;;7.50;;
56830;SDS011;42713;42.676;23.352;2023-04-06T09:03:04;16.58;;;8.50;;
56830;SDS011;42713;42.676;23.352;2023-04-06T09:05:31;14.68;;;7.25;;
56830;SDS011;42713;42.676;23.352;2023-04-06T09:07:58;18.63;;;8.75;;
56830;SDS011;42713;42.676;23.352;2023-04-06T09:10:23;14.25;;;7.45;;
56830;SDS011;42713;42.676;23.352;2023-04-06T09:12:50;16.95;;;7.45;;
56830;SDS011;42713;42.676;23.352;2023-04-06T09:15:20;17.95;;;8.00;;
56830;SDS011;42713;42.676;23.352;2023-04-06T09:17:46;13.70;;;7.23;;
56830;SDS011;42713;42.676;23.352;2023-04-06T09:20:12;14.40;;;7.88;;
56830;SDS011;42713;42.676;23.352;2023-04-06T09:22:38;13.85;;;7.07;;
56830;SDS011;42713;42.676;23.352;2023-04-06T09:25:04;11.43;;;6.50;;
56830;SDS011;42713;42.676;23.352;2023-04-06T09:27:35;14.45;;;7.20;;
56830;SDS011;42713;42.676;23.352;2023-04-06T09:30:02;12.98;;;7.03;;
56830;SDS011;42713;42.676;23.352;2023-04-06T09:32:30;14.38;;;7.63;;
56830;SDS011;42713;42.676;23.352;2023-04-06T09:35:05;17.10;;;8.02;;
56830;SDS011;42713;42.676;23.352;2023-04-06T09:37:34;13.48;;;7.55;;
56830;SDS011;42713;42.676;23.352;2023-04-06T09:40:06;15.77;;;8.85;;
56830;SDS011;42713;42.676;23.352;2023-04-06T09:42:33;15.75;;;8.02;;
56830;SDS011;42713;42.676;23.352;2023-04-06T09:44:59;13.93;;;7.47;;
56830;SDS011;42713;42.676;23.352;2023-04-06T09:47:25;15.00;;;7.32;;
56830;SDS011;42713;42.676;23.352;2023-04-06T09:49:55;15.40;;;8.50;;
56830;SDS011;42713;42.676;23.352;2023-04-06T09:54:52;16.85;;;8.63;;
56830;SDS011;42713;42.676;23.352;2023-04-06T10:02:50;15.18;;;7.38;;
56830;SDS011;42713;42.676;23.352;2023-04-06T10:08:05;13.63;;;8.02;;
56830;SDS011;42713;42.676;23.352;2023-04-06T10:10:34;14.05;;;6.80;;
56830;SDS011;42713;42.676;23.352;2023-04-06T10:13:00;13.25;;;6.45;;
56830;SDS011;42713;42.676;23.352;2023-04-06T10:15:28;11.32;;;6.68;;
56830;SDS011;42713;42.676;23.352;2023-04-06T10:17:54;15.95;;;7.20;;
56830;SDS011;42713;42.676;23.352;2023-04-06T10:20:22;13.85;;;6.43;;
56830;SDS011;42713;42.676;23.352;2023-04-06T10:25:30;16.05;;;7.28;;
56830;SDS011;42713;42.676;23.352;2023-04-06T10:30:26;13.27;;;7.28;;
56830;SDS011;42713;42.676;23.352;2023-04-06T10:32:52;13.98;;;7.75;;
56830;SDS011;42713;42.676;23.352;2023-04-06T10:35:18;11.18;;;6.00;;
56830;SDS011;42713;42.676;23.352;2023-04-06T10:37:51;14.60;;;6.38;;
56830;SDS011;42713;42.676;23.352;2023-04-06T10:40:24;12.43;;;6.22;;
56830;SDS011;42713;42.676;23.352;2023-04-06T10:42:51;13.75;;;6.45;;
56830;SDS011;42713;42.676;23.352;2023-04-06T10:45:19;11.95;;;6.47;;
56830;SDS011;42713;42.676;23.352;2023-04-06T10:47:46;11.30;;;6.20;;
56830;SDS011;42713;42.676;23.352;2023-04-06T10:50:12;11.05;;;6.47;;
56830;SDS011;42713;42.676;23.352;2023-04-06T10:52:40;12.60;;;6.70;;
56830;SDS011;42713;42.676;23.352;2023-04-06T10:55:06;13.60;;;7.60;;
56830;SDS011;42713;42.676;23.352;2023-04-06T10:57:35;12.38;;;6.70;;
56830;SDS011;42713;42.676;23.352;2023-04-06T11:00:03;13.63;;;6.47;;
56830;SDS011;42713;42.676;23.352;2023-04-06T11:02:33;12.18;;;6.97;;
56830;SDS011;42713;42.676;23.352;2023-04-06T11:05:00;13.07;;;6.38;;
56830;SDS011;42713;42.676;23.352;2023-04-06T11:07:26;13.70;;;7.25;;
56830;SDS011;42713;42.676;23.352;2023-04-06T11:09:54;13.38;;;7.32;;
56830;SDS011;42713;42.676;23.352;2023-04-06T11:12:20;12.95;;;7.65;;
56830;SDS011;42713;42.676;23.352;2023-04-06T11:14:57;10.63;;;6.00;;
56830;SDS011;42713;42.676;23.352;2023-04-06T11:17:33;10.82;;;6.30;;
56830;SDS011;42713;42.676;23.352;2023-04-06T11:20:00;11.38;;;6.43;;
56830;SDS011;42713;42.676;23.352;2023-04-06T11:22:27;11.38;;;5.82;;
56830;SDS011;42713;42.676;23.352;2023-04-06T11:25:03;12.68;;;6.57;;
56830;SDS011;42713;42.676;23.352;2023-04-06T11:27:30;14.88;;;7.00;;
56830;SDS011;42713;42.676;23.352;2023-04-06T11:29:57;12.35;;;6.47;;
56830;SDS011;42713;42.676;23.352;2023-04-06T11:32:24;12.13;;;6.63;;
56830;SDS011;42713;42.676;23.352;2023-04-06T11:34:50;12.88;;;5.95;;
56830;SDS011;42713;42.676;23.352;2023-04-06T11:37:15;13.00;;;6.15;;
56830;SDS011;42713;42.676;23.352;2023-04-06T11:39:48;12.93;;;6.28;;
56830;SDS011;42713;42.676;23.352;2023-04-06T11:42:26;11.15;;;6.25;;
56830;SDS011;42713;42.676;23.352;2023-04-06T11:44:53;11.30;;;6.35;;
56830;SDS011;42713;42.676;23.352;2023-04-06T11:47:20;12.43;;;6.03;;
56830;SDS011;42713;42.676;23.352;2023-04-06T11:49:53;13.50;;;6.05;;
56830;SDS011;42713;42.676;23.352;2023-04-06T11:52:20;12.25;;;6.07;;
56830;SDS011;42713;42.676;23.352;2023-04-06T11:54:47;13.02;;;7.13;;
56830;SDS011;42713;42.676;23.352;2023-04-06T11:57:14;13.73;;;6.50;;
56830;SDS011;42713;42.676;23.352;2023-04-06T11:59:40;13.05;;;6.88;;
56830;SDS011;42713;42.676;23.352;2023-04-06T12:02:06;12.52;;;6.40;;
56830;SDS011;42713;42.676;23.352;2023-04-06T12:04:31;12.70;;;6.68;;
56830;SDS011;42713;42.676;23.352;2023-04-06T12:06:58;12.15;;;7.03;;
56830;SDS011;42713;42.676;23.352;2023-04-06T12:09:23;12.50;;;7.00;;
56830;SDS011;42713;42.676;23.352;2023-04-06T12:11:49;9.80;;;5.40;;
56830;SDS011;42713;42.676;23.352;2023-04-06T12:14:15;16.30;;;6.50;;
56830;SDS011;42713;42.676;23.352;2023-04-06T12:16:41;10.77;;;6.07;;
56830;SDS011;42713;42.676;23.352;2023-04-06T12:19:07;13.77;;;6.85;;
56830;SDS011;42713;42.676;23.352;2023-04-06T12:21:34;11.07;;;6.13;;
56830;SDS011;42713;42.676;23.352;2023-04-06T12:24:01;10.75;;;6.32;;
56830;SDS011;42713;42.676;23.352;2023-04-06T12:26:27;12.73;;;6.45;;
56830;SDS011;42713;42.676;23.352;2023-04-06T12:28:53;14.15;;;7.25;;
56830;SDS011;42713;42.676;23.352;2023-04-06T12:31:19;13.82;;;6.88;;
56830;SDS011;42713;42.676;23.352;2023-04-06T12:33:47;14.10;;;6.30;;
56830;SDS011;42713;42.676;23.352;2023-04-06T12:36:16;11.60;;;5.93;;
56830;SDS011;42713;42.676;23.352;2023-04-06T12:38:47;12.30;;;6.20;;
56830;SDS011;42713;42.676;23.352;2023-04-06T12:41:13;11.48;;;6.20;;
56830;SDS011;42713;42.676;23.352;2023-04-06T12:43:40;10.18;;;5.68;;
56830;SDS011;42713;42.676;23.352;2023-04-06T12:46:06;12.77;;;6.60;;
56830;SDS011;42713;42.676;23.352;2023-04-06T12:48:32;11.80;;;5.82;;
56830;SDS011;42713;42.676;23.352;2023-04-06T12:50:57;12.82;;;5.72;;
56830;SDS011;42713;42.676;23.352;2023-04-06T12:53:25;13.02;;;5.85;;
56830;SDS011;42713;42.676;23.352;2023-04-06T12:55:51;12.70;;;6.75;;
56830;SDS011;42713;42.676;23.352;2023-04-06T12:58:17;10.48;;;5.90;;
56830;SDS011;42713;42.676;23.352;2023-04-06T13:00:43;15.13;;;6.95;;
56830;SDS011;42713;42.676;23.352;2023-04-06T13:03:08;14.63;;;6.43;;
56830;SDS011;42713;42.676;23.352;2023-04-06T13:05:34;13.52;;;7.50;;
56830;SDS011;42713;42.676;23.352;2023-04-06T13:08:00;14.70;;;6.00;;
56830;SDS011;42713;42.676;23.352;2023-04-06T13:10:26;14.05;;;6.10;;
56830;SDS011;42713;42.676;23.352;2023-04-06T13:12:52;13.43;;;6.03;;
56830;SDS011;42713;42.676;23.352;2023-04-06T13:15:17;11.27;;;5.90;;
56830;SDS011;42713;42.676;23.352;2023-04-06T13:17:43;12.82;;;6.32;;
56830;SDS011;42713;42.676;23.352;2023-04-06T13:20:09;13.73;;;6.90;;
56830;SDS011;42713;42.676;23.352;2023-04-06T13:22:34;11.27;;;6.13;;
56830;SDS011;42713;42.676;23.352;2023-04-06T13:25:00;13.20;;;6.03;;
56830;SDS011;42713;42.676;23.352;2023-04-06T13:27:27;10.57;;;6.13;;
56830;SDS011;42713;42.676;23.352;2023-04-06T13:29:53;10.98;;;5.97;;
56830;SDS011;42713;42.676;23.352;2023-04-06T13:32:19;13.75;;;6.25;;
56830;SDS011;42713;42.676;23.352;2023-04-06T13:34:45;13.43;;;6.32;;
56830;SDS011;42713;42.676;23.352;2023-04-06T13:37:13;12.55;;;6.50;;
56830;SDS011;42713;42.676;23.352;2023-04-06T13:39:38;13.73;;;7.28;;
56830;SDS011;42713;42.676;23.352;2023-04-06T13:42:05;13.48;;;6.35;;
56830;SDS011;42713;42.676;23.352;2023-04-06T13:44:31;12.60;;;6.50;;
56830;SDS011;42713;42.676;23.352;2023-04-06T13:46:57;10.07;;;5.10;;
56830;SDS011;42713;42.676;23.352;2023-04-06T13:49:23;11.40;;;5.80;;
56830;SDS011;42713;42.676;23.352;2023-04-06T13:51:48;11.38;;;5.35;;
56830;SDS011;42713;42.676;23.352;2023-04-06T13:54:14;11.55;;;5.95;;
56830;SDS011;42713;42.676;23.352;2023-04-06T13:56:40;10.75;;;5.53;;
56830;SDS011;42713;42.676;23.352;2023-04-06T13:59:05;11.25;;;5.40;;
56830;SDS011;42713;42.676;23.352;2023-04-06T14:01:30;13.10;;;5.80;;
56830;SDS011;42713;42.676;23.352;2023-04-06T14:03:56;12.50;;;6.05;;
56830;SDS011;42713;42.676;23.352;2023-04-06T14:06:21;10.18;;;5.35;;
56830;SDS011;42713;42.676;23.352;2023-04-06T14:08:47;12.50;;;5.35;;
56830;SDS011;42713;42.676;23.352;2023-04-06T14:11:13;10.95;;;5.65;;
56830;SDS011;42713;42.676;23.352;2023-04-06T14:13:39;13.23;;;5.38;;
56830;SDS011;42713;42.676;23.352;2023-04-06T14:16:05;13.77;;;6.25;;
56830;SDS011;42713;42.676;23.352;2023-04-06T14:18:32;10.88;;;5.60;;
56830;SDS011;42713;42.676;23.352;2023-04-06T14:20:59;13.55;;;5.97;;
56830;SDS011;42713;42.676;23.352;2023-04-06T14:23:25;11.82;;;6.50;;
56830;SDS011;42713;42.676;23.352;2023-04-06T14:26:00;10.23;;;5.40;;
56830;SDS011;42713;42.676;23.352;2023-04-06T14:28:30;13.70;;;5.80;;
56830;SDS011;42713;42.676;23.352;2023-04-06T14:30:58;10.68;;;5.47;;